createdAt,value
2022-10-17T00:02:44.327Z,13.43
2022-10-17T00:05:48.519Z,13.32
2022-10-17T00:08:52.419Z,13.27
2022-10-17T00:11:54.905Z,13.28
2022-10-17T00:14:57.412Z,13.22
2022-10-17T00:18:00.174Z,13.28
2022-10-17T00:21:02.670Z,13.41
2022-10-17T00:24:07.186Z,13.46
2022-10-17T00:27:09.748Z,13.34
2022-10-17T00:30:13.827Z,13.38
2022-10-17T00:33:16.327Z,13.47
2022-10-17T00:36:21.019Z,13.53
2022-10-17T00:39:24.863Z,13.56
2022-10-17T00:42:28.656Z,13.57
2022-10-17T00:45:32.455Z,13.65
2022-10-17T00:48:34.944Z,13.71
2022-10-17T00:51:41.756Z,13.68
2022-10-17T00:54:49.445Z,13.67
2022-10-17T00:57:53.286Z,13.72
2022-10-17T01:00:55.890Z,13.79
2022-10-17T01:07:15.215Z,13.72
2022-10-17T01:10:20.335Z,13.81
2022-10-17T01:13:30.958Z,13.82
2022-10-17T01:16:45.578Z,13.82
2022-10-17T01:20:11.024Z,13.85
2022-10-17T01:23:29.053Z,13.90
2022-10-17T01:26:50.096Z,13.92
2022-10-17T01:30:13.996Z,13.99
2022-10-17T01:33:25.154Z,13.91
2022-10-17T01:36:38.614Z,13.94
2022-10-17T01:39:45.573Z,13.94
2022-10-17T01:42:58.810Z,13.97
2022-10-17T01:46:11.176Z,13.99
2022-10-17T01:49:18.298Z,14.01
2022-10-17T01:52:24.154Z,13.95
2022-10-17T01:55:32.558Z,14.01
2022-10-17T01:58:41.350Z,14.09
2022-10-17T02:01:45.968Z,14.04
2022-10-17T02:04:52.585Z,14.04
2022-10-17T02:07:55.096Z,14.05
2022-10-17T02:11:03.446Z,14.04
2022-10-17T02:14:19.309Z,14.09
2022-10-17T02:17:35.020Z,14.12
2022-10-17T02:20:46.713Z,14.16
2022-10-17T02:23:54.954Z,14.12
2022-10-17T02:27:05.047Z,14.17
2022-10-17T02:30:12.549Z,14.26
2022-10-17T02:33:20.737Z,14.27
2022-10-17T02:36:31.611Z,14.34
2022-10-17T02:39:36.814Z,14.37
2022-10-17T02:42:40.369Z,14.44
2022-10-17T02:45:42.885Z,14.50
2022-10-17T02:48:50.079Z,14.57
2022-10-17T02:52:02.784Z,14.43
2022-10-17T02:55:11.663Z,14.41
2022-10-17T02:58:20.072Z,14.59
2022-10-17T03:01:22.926Z,14.65
2022-10-17T03:04:25.463Z,14.71
2022-10-17T03:07:29.304Z,14.72
2022-10-17T03:10:31.762Z,14.71
2022-10-17T03:13:36.342Z,14.76
2022-10-17T03:16:42.129Z,14.76
2022-10-17T03:19:44.613Z,14.77
2022-10-17T03:22:48.422Z,14.71
2022-10-17T03:25:50.910Z,14.66
2022-10-17T03:28:54.509Z,14.55
2022-10-17T03:31:57.313Z,14.63
2022-10-17T03:34:59.793Z,14.51
2022-10-17T03:38:03.615Z,14.52
2022-10-17T03:41:06.676Z,14.53
2022-10-17T03:44:09.193Z,14.43
2022-10-17T03:47:14.120Z,14.52
2022-10-17T03:50:16.926Z,14.41
2022-10-17T03:53:20.764Z,14.45
2022-10-17T03:56:24.886Z,14.39
2022-10-17T03:59:27.373Z,14.36
2022-10-17T04:02:29.897Z,14.24
2022-10-17T04:05:32.411Z,14.27
2022-10-17T04:08:36.505Z,14.31
2022-10-17T04:11:39.231Z,14.26
2022-10-17T04:14:41.703Z,14.27
2022-10-17T04:17:44.187Z,14.21
2022-10-17T04:20:46.660Z,14.17
2022-10-17T04:23:54.401Z,14.19
2022-10-17T04:26:56.914Z,14.14
2022-10-17T04:29:59.395Z,14.09
2022-10-17T04:33:01.891Z,14.10
2022-10-17T04:36:07.206Z,14.03
2022-10-17T04:39:11.075Z,14.13
2022-10-17T04:42:13.650Z,14.01
2022-10-17T04:45:16.180Z,14.07
2022-10-17T04:48:18.693Z,14.01
2022-10-17T04:51:23.271Z,14.07
2022-10-17T04:54:29.729Z,14.02
2022-10-17T04:57:35.778Z,14.07
2022-10-17T05:00:38.307Z,14.05
2022-10-17T05:03:40.931Z,13.91
2022-10-17T05:06:43.413Z,13.99
2022-10-17T05:09:47.264Z,13.99
2022-10-17T05:12:49.858Z,14.00
2022-10-17T05:15:52.365Z,13.92
2022-10-17T05:18:56.395Z,13.90
2022-10-17T05:21:58.913Z,13.87
2022-10-17T05:25:02.873Z,13.83
2022-10-17T05:28:05.470Z,13.83
2022-10-17T05:31:09.309Z,13.77
2022-10-17T05:34:13.909Z,13.79
2022-10-17T05:37:16.614Z,13.80
2022-10-17T05:40:21.369Z,13.72
2022-10-17T05:43:23.842Z,13.52
2022-10-17T05:46:26.456Z,13.67
2022-10-17T05:49:40.006Z,13.71
2022-10-17T05:52:47.405Z,13.64
2022-10-17T05:55:58.015Z,13.66
2022-10-17T05:59:01.188Z,13.65
2022-10-17T06:02:03.909Z,13.52
2022-10-17T06:05:06.987Z,13.57
2022-10-17T06:08:09.582Z,13.43
2022-10-17T06:11:14.326Z,13.57
2022-10-17T06:14:16.817Z,13.54
2022-10-17T06:17:19.330Z,13.53
2022-10-17T06:20:21.839Z,13.51
2022-10-17T06:23:24.321Z,13.60
2022-10-17T06:26:28.135Z,13.60
2022-10-17T06:29:30.702Z,13.62
2022-10-17T06:32:33.205Z,13.70
2022-10-17T06:35:35.737Z,13.76
2022-10-17T06:38:38.507Z,13.82
2022-10-17T06:41:44.423Z,13.86
2022-10-17T06:44:46.920Z,13.85
2022-10-17T06:47:49.859Z,14.05
2022-10-17T06:50:52.340Z,14.29
2022-10-17T06:53:54.825Z,14.34
2022-10-17T06:56:58.703Z,14.41
2022-10-17T07:00:01.195Z,14.44
2022-10-17T07:03:03.694Z,14.45
2022-10-17T07:06:06.525Z,14.48
2022-10-17T07:09:09.534Z,14.61
2022-10-17T07:12:13.435Z,14.59
2022-10-17T07:15:16.115Z,14.79
2022-10-17T07:18:18.613Z,14.78
2022-10-17T07:21:21.917Z,14.75
2022-10-17T07:24:24.460Z,14.77
2022-10-17T07:27:28.803Z,14.89
2022-10-17T07:30:31.473Z,14.96
2022-10-17T07:33:34.177Z,15.05
2022-10-17T07:36:36.765Z,15.00
2022-10-17T07:39:39.984Z,14.77
2022-10-17T07:42:43.794Z,14.89
2022-10-17T07:45:46.321Z,15.02
2022-10-17T07:48:48.789Z,15.29
2022-10-17T07:51:51.305Z,15.31
2022-10-17T07:54:53.773Z,15.41
2022-10-17T07:57:58.035Z,15.48
2022-10-17T08:04:09.535Z,15.50
2022-10-17T08:07:20.927Z,15.78
2022-10-17T08:10:27.712Z,16.02
2022-10-17T08:13:31.555Z,16.43
2022-10-17T08:16:34.037Z,16.44
2022-10-17T08:19:39.481Z,16.66
2022-10-17T08:22:42.117Z,16.76
2022-10-17T08:25:44.616Z,16.91
2022-10-17T08:28:48.831Z,17.12
2022-10-17T08:31:54.187Z,17.04
2022-10-17T08:35:01.163Z,16.92
2022-10-17T08:38:03.792Z,16.97
2022-10-17T08:41:15.353Z,17.05
2022-10-17T08:44:28.796Z,17.09
2022-10-17T08:47:39.329Z,17.30
2022-10-17T08:50:46.701Z,17.39
2022-10-17T08:53:53.777Z,17.53
2022-10-17T08:56:56.491Z,18.18
2022-10-17T09:00:00.333Z,18.32
2022-10-17T09:03:20.571Z,18.81
2022-10-17T09:06:29.890Z,19.05
2022-10-17T09:09:41.235Z,19.02
2022-10-17T09:12:52.984Z,18.91
2022-10-17T09:16:10.232Z,19.26
2022-10-17T09:19:18.257Z,19.66
2022-10-17T09:22:24.548Z,20.74
2022-10-17T09:25:28.455Z,21.18
2022-10-17T09:28:34.204Z,21.47
2022-10-17T09:31:44.969Z,20.43
2022-10-17T09:34:47.585Z,20.42
2022-10-17T09:37:50.956Z,20.30
2022-10-17T09:40:57.559Z,20.19
2022-10-17T09:44:09.822Z,20.14
2022-10-17T09:47:23.528Z,20.07
2022-10-17T09:50:29.476Z,19.76
2022-10-17T09:53:35.946Z,19.68
2022-10-17T09:56:59.782Z,19.97
2022-10-17T10:00:05.168Z,20.09
2022-10-17T10:03:16.794Z,20.22
2022-10-17T10:06:21.739Z,20.74
2022-10-17T10:09:28.553Z,21.08
2022-10-17T10:12:33.607Z,21.11
2022-10-17T10:15:38.924Z,20.95
2022-10-17T10:18:43.903Z,20.56
2022-10-17T10:21:56.981Z,20.52
2022-10-17T10:25:12.340Z,20.58
2022-10-17T10:28:18.124Z,20.40
2022-10-17T10:31:29.046Z,20.49
2022-10-17T10:34:35.682Z,20.64
2022-10-17T10:37:43.393Z,20.82
2022-10-17T10:40:47.995Z,21.57
2022-10-17T10:43:52.977Z,22.22
2022-10-17T10:47:18.679Z,21.90
2022-10-17T10:50:30.261Z,21.52
2022-10-17T10:53:44.841Z,21.28
2022-10-17T10:56:52.647Z,21.03
2022-10-17T11:00:03.372Z,20.93
2022-10-17T11:03:13.513Z,20.80
2022-10-17T11:06:23.439Z,20.62
2022-10-17T11:09:34.061Z,20.50
2022-10-17T11:12:40.278Z,20.35
2022-10-17T11:15:47.718Z,20.30
2022-10-17T11:18:54.242Z,20.26
2022-10-17T11:22:09.086Z,20.22
2022-10-17T11:25:23.076Z,20.22
2022-10-17T11:28:26.551Z,20.33
2022-10-17T11:31:33.458Z,20.42
2022-10-17T11:34:41.752Z,20.66
2022-10-17T11:37:50.658Z,20.79
2022-10-17T11:40:57.043Z,20.78
2022-10-17T11:44:04.981Z,20.81
2022-10-17T11:47:18.959Z,20.76
2022-10-17T11:53:56.895Z,20.81
2022-10-17T11:57:25.164Z,20.74
2022-10-17T12:00:41.724Z,20.62
2022-10-17T12:04:12.486Z,20.71
2022-10-17T12:07:20.882Z,20.62
2022-10-17T12:10:44.666Z,20.41
2022-10-17T12:13:53.020Z,20.42
2022-10-17T12:16:55.569Z,20.37
2022-10-17T12:20:30.445Z,20.33
2022-10-17T12:23:36.278Z,20.25
2022-10-17T12:26:40.134Z,20.26
2022-10-17T12:29:42.659Z,20.26
2022-10-17T12:33:06.597Z,20.22
2022-10-17T12:36:49.365Z,20.23
2022-10-17T12:39:54.529Z,20.24
2022-10-17T12:42:58.360Z,20.20
2022-10-17T12:46:01.897Z,20.10
2022-10-17T12:49:20.540Z,20.10
2022-10-17T12:52:25.684Z,20.11
2022-10-17T12:55:28.573Z,20.18
2022-10-17T12:58:32.619Z,20.07
2022-10-17T13:01:39.313Z,19.99
2022-10-17T13:04:41.901Z,19.90
2022-10-17T13:07:49.408Z,19.87
2022-10-17T13:10:53.671Z,19.81
2022-10-17T13:14:00.219Z,19.89
2022-10-17T13:17:05.799Z,19.88
2022-10-17T13:20:25.643Z,19.92
2022-10-17T13:23:34.549Z,19.84
2022-10-17T13:26:37.037Z,19.72
2022-10-17T13:29:45.340Z,19.62
2022-10-17T13:32:47.827Z,19.36
2022-10-17T13:36:05.669Z,19.13
2022-10-17T13:39:13.649Z,18.92
2022-10-17T13:42:23.872Z,18.79
2022-10-17T13:45:31.314Z,18.72
2022-10-17T13:48:37.558Z,18.80
2022-10-17T13:51:44.792Z,18.76
2022-10-17T13:54:50.590Z,18.66
2022-10-17T13:57:53.294Z,18.58
2022-10-17T14:00:57.824Z,18.47
2022-10-17T14:04:08.848Z,18.36
2022-10-17T14:07:25.870Z,18.36
2022-10-17T14:10:34.244Z,18.43
2022-10-17T14:13:36.844Z,18.43
2022-10-17T14:16:43.707Z,18.31
2022-10-17T14:19:55.468Z,18.21
2022-10-17T14:23:30.697Z,17.93
2022-10-17T14:26:37.128Z,18.01
2022-10-17T14:29:52.665Z,18.09
2022-10-17T14:32:58.860Z,18.17
2022-10-17T14:36:03.545Z,18.15
2022-10-17T14:39:13.341Z,18.10
2022-10-17T14:42:20.760Z,18.20
2022-10-17T14:45:26.758Z,18.17
2022-10-17T14:48:31.994Z,18.17
2022-10-17T14:51:50.186Z,18.21
2022-10-17T14:54:59.295Z,18.11
2022-10-17T14:58:02.608Z,18.09
2022-10-17T15:01:05.156Z,18.04
2022-10-17T15:04:10.690Z,18.06
2022-10-17T15:07:17.420Z,18.08
2022-10-17T15:10:41.862Z,18.03
2022-10-17T15:13:45.756Z,18.08
2022-10-17T15:16:48.348Z,17.95
2022-10-17T15:19:52.294Z,17.75
2022-10-17T15:22:54.837Z,17.76
2022-10-17T15:25:57.319Z,17.74
2022-10-17T15:29:00.441Z,17.80
2022-10-17T15:32:02.998Z,17.80
2022-10-17T15:35:07.849Z,17.82
2022-10-17T15:38:12.614Z,17.88
2022-10-17T15:41:15.310Z,17.84
2022-10-17T15:44:17.925Z,17.85
2022-10-17T15:47:25.672Z,17.87
2022-10-17T15:50:30.521Z,17.88
2022-10-17T15:53:32.991Z,17.82
2022-10-17T15:56:38.144Z,17.75
2022-10-17T15:59:40.647Z,17.79
2022-10-17T16:02:43.342Z,17.75
2022-10-17T16:05:47.276Z,17.83
2022-10-17T16:08:51.006Z,17.80
2022-10-17T16:11:53.511Z,17.88
2022-10-17T16:14:56.622Z,17.78
2022-10-17T16:18:01.671Z,17.80
2022-10-17T16:21:10.889Z,17.87
2022-10-17T16:24:13.818Z,17.86
2022-10-17T16:27:16.354Z,17.78
2022-10-17T16:30:20.102Z,17.82
2022-10-17T16:33:22.606Z,17.78
2022-10-17T16:36:26.798Z,17.82
2022-10-17T16:39:29.279Z,17.80
2022-10-17T16:42:31.969Z,17.84
2022-10-17T16:45:34.771Z,17.66
2022-10-17T16:48:37.313Z,17.64
2022-10-17T16:51:41.174Z,17.60
2022-10-17T16:54:43.713Z,17.67
2022-10-17T16:57:48.832Z,17.56
2022-10-17T17:00:51.884Z,17.54
2022-10-17T17:03:55.015Z,17.53
2022-10-17T17:06:58.851Z,17.58
2022-10-17T17:10:01.325Z,17.67
2022-10-17T17:13:04.434Z,17.70
2022-10-17T17:16:08.540Z,17.71
2022-10-17T17:19:13.357Z,17.71
2022-10-17T17:22:17.258Z,17.67
2022-10-17T17:25:19.953Z,17.56
2022-10-17T17:28:22.503Z,17.58
2022-10-17T17:31:27.159Z,17.55
2022-10-17T17:34:29.645Z,17.42
2022-10-17T17:37:33.634Z,17.52
2022-10-17T17:40:36.148Z,17.50
2022-10-17T17:43:38.630Z,17.29
2022-10-17T17:46:43.399Z,17.36
2022-10-17T17:49:45.969Z,17.39
2022-10-17T17:52:51.062Z,17.41
2022-10-17T17:56:02.348Z,17.43
2022-10-17T17:59:05.233Z,17.33
2022-10-17T18:02:08.786Z,17.37
2022-10-17T18:05:11.370Z,17.39
2022-10-17T18:08:15.214Z,17.42
2022-10-17T18:11:21.173Z,17.36
2022-10-17T18:14:25.491Z,17.42
2022-10-17T18:17:28.174Z,17.47
2022-10-17T18:20:30.823Z,17.46
2022-10-17T18:23:37.567Z,17.43
2022-10-17T18:26:40.068Z,17.41
2022-10-17T18:29:42.634Z,17.46
2022-10-17T18:32:45.110Z,17.49
2022-10-17T18:35:47.607Z,17.41
2022-10-17T18:38:51.434Z,17.39
2022-10-17T18:41:53.916Z,17.49
2022-10-17T18:44:56.731Z,17.55
2022-10-17T18:47:59.262Z,17.50
2022-10-17T18:51:02.205Z,17.46
2022-10-17T18:54:06.255Z,17.48
2022-10-17T18:57:08.781Z,17.51
2022-10-17T19:00:12.392Z,17.50
2022-10-17T19:03:15.031Z,17.47
2022-10-17T19:06:19.795Z,17.39
2022-10-17T19:09:23.605Z,17.43
2022-10-17T19:12:26.208Z,17.52
2022-10-17T19:15:28.677Z,17.46
2022-10-17T19:18:31.168Z,17.50
2022-10-17T19:21:33.847Z,17.50
2022-10-17T19:24:38.113Z,17.44
2022-10-17T19:27:40.604Z,17.51
2022-10-17T19:30:43.655Z,17.53
2022-10-17T19:33:46.227Z,17.50
2022-10-17T19:36:48.702Z,17.47
2022-10-17T19:39:52.541Z,17.44
2022-10-17T19:42:55.180Z,17.43
2022-10-17T19:45:58.596Z,17.49
2022-10-17T19:49:02.125Z,17.46
2022-10-17T19:52:04.834Z,17.47
2022-10-17T19:55:09.338Z,17.49
2022-10-17T19:58:12.594Z,17.48
2022-10-17T20:01:17.356Z,17.51
2022-10-17T20:04:20.041Z,17.47
2022-10-17T20:07:22.533Z,17.44
2022-10-17T20:10:26.476Z,17.44
2022-10-17T20:13:28.939Z,17.47
2022-10-17T20:16:35.317Z,17.48
2022-10-17T20:19:37.793Z,17.40
2022-10-17T20:22:40.282Z,17.31
2022-10-17T20:25:44.227Z,17.28
2022-10-17T20:28:47.541Z,17.24
2022-10-17T20:31:50.704Z,17.20
2022-10-17T20:34:53.306Z,17.14
2022-10-17T20:37:56.171Z,17.15
2022-10-17T20:41:03.122Z,17.22
2022-10-17T20:44:06.985Z,17.20
2022-10-17T20:47:16.259Z,17.16
2022-10-17T20:50:18.944Z,17.20
2022-10-17T20:53:36.646Z,17.09
2022-10-17T20:56:41.342Z,17.12
2022-10-17T20:59:45.494Z,17.11
2022-10-17T21:02:48.033Z,17.09
2022-10-17T21:05:50.684Z,17.09
2022-10-17T21:08:54.038Z,16.93
2022-10-17T21:11:58.089Z,17.00
2022-10-17T21:15:01.037Z,17.00
2022-10-17T21:18:03.654Z,16.82
2022-10-17T21:21:11.844Z,16.84
2022-10-17T21:24:18.021Z,16.76
2022-10-17T21:27:22.113Z,16.76
2022-10-17T21:30:24.586Z,16.81
2022-10-17T21:33:29.862Z,16.64
2022-10-17T21:36:32.663Z,16.66
2022-10-17T21:39:35.320Z,16.68
2022-10-17T21:42:39.323Z,16.70
2022-10-17T21:45:41.946Z,16.74
2022-10-17T21:48:45.478Z,16.67
2022-10-17T21:51:49.064Z,16.75
2022-10-17T21:54:51.829Z,16.72
2022-10-17T21:57:55.778Z,16.53
2022-10-17T22:01:04.916Z,16.66
2022-10-17T22:04:09.147Z,16.47
2022-10-17T22:07:11.634Z,16.53
2022-10-17T22:10:14.133Z,16.53
2022-10-17T22:13:17.941Z,16.50
2022-10-17T22:16:20.522Z,16.42
2022-10-17T22:19:26.719Z,16.32
2022-10-17T22:22:29.278Z,16.24
2022-10-17T22:25:31.870Z,16.27
2022-10-17T22:28:36.489Z,16.43
2022-10-17T22:31:39.522Z,16.37
2022-10-17T22:34:42.042Z,16.48
2022-10-17T22:37:44.528Z,16.41
2022-10-17T22:40:47.907Z,16.41
2022-10-17T22:43:51.731Z,16.36
2022-10-17T22:46:54.228Z,16.44
2022-10-17T22:49:57.094Z,16.39
2022-10-17T22:52:59.765Z,16.33
2022-10-17T22:56:04.199Z,16.30
2022-10-17T22:59:08.041Z,16.34
2022-10-17T23:02:10.517Z,16.42
2022-10-17T23:05:13.025Z,16.39
2022-10-17T23:08:17.765Z,16.36
2022-10-17T23:11:20.692Z,16.32
2022-10-17T23:14:24.551Z,16.41
2022-10-17T23:17:27.034Z,16.34
2022-10-17T23:20:30.381Z,16.36
2022-10-17T23:23:32.905Z,16.37
2022-10-17T23:26:35.397Z,16.36
2022-10-17T23:29:39.263Z,16.30
2022-10-17T23:32:42.379Z,16.30
2022-10-17T23:35:44.858Z,16.36
2022-10-17T23:38:48.424Z,16.35
2022-10-17T23:41:50.927Z,16.36
2022-10-17T23:44:54.824Z,16.39
2022-10-17T23:47:57.302Z,16.38
2022-10-17T23:50:59.781Z,16.36
2022-10-17T23:54:02.262Z,16.34
2022-10-17T23:57:04.830Z,16.38
